sensor_id;sensor_type;location;lat;lon;timestamp;temperature;humidity
15636;DHT22;7917;50.818;6.972;2022-09-09T00:02:01;15.60;99.90
15636;DHT22;7917;50.818;6.972;2022-09-09T00:04:34;15.60;99.90
15636;DHT22;7917;50.818;6.972;2022-09-09T00:07:05;15.60;99.90
15636;DHT22;7917;50.818;6.972;2022-09-09T00:09:40;15.50;99.90
15636;DHT22;7917;50.818;6.972;2022-09-09T00:12:17;15.50;99.90
15636;DHT22;7917;50.818;6.972;2022-09-09T00:14:50;15.40;99.90
15636;DHT22;7917;50.818;6.972;2022-09-09T00:17:31;15.30;99.90
15636;DHT22;7917;50.818;6.972;2022-09-09T00:20:05;15.30;99.90
15636;DHT22;7917;50.818;6.972;2022-09-09T00:22:42;15.20;99.90
15636;DHT22;7917;50.818;6.972;2022-09-09T00:25:15;15.20;99.90
15636;DHT22;7917;50.818;6.972;2022-09-09T00:27:48;15.20;99.90
15636;DHT22;7917;50.818;6.972;2022-09-09T00:30:18;15.20;99.90
15636;DHT22;7917;50.818;6.972;2022-09-09T00:32:49;15.30;99.90
15636;DHT22;7917;50.818;6.972;2022-09-09T00:35:23;15.30;99.90
15636;DHT22;7917;50.818;6.972;2022-09-09T00:37:53;15.40;99.90
15636;DHT22;7917;50.818;6.972;2022-09-09T00:40:27;15.40;99.90
15636;DHT22;7917;50.818;6.972;2022-09-09T00:43:21;15.50;99.90
15636;DHT22;7917;50.818;6.972;2022-09-09T00:49:03;15.50;99.90
15636;DHT22;7917;50.818;6.972;2022-09-09T00:51:42;15.40;99.90
15636;DHT22;7917;50.818;6.972;2022-09-09T00:54:31;15.50;99.90
15636;DHT22;7917;50.818;6.972;2022-09-09T00:57:12;15.40;99.90
15636;DHT22;7917;50.818;6.972;2022-09-09T00:59:47;15.40;99.90
15636;DHT22;7917;50.818;6.972;2022-09-09T01:02:26;15.40;99.90
15636;DHT22;7917;50.818;6.972;2022-09-09T01:05:00;15.40;99.90
15636;DHT22;7917;50.818;6.972;2022-09-09T01:07:30;15.40;99.90
15636;DHT22;7917;50.818;6.972;2022-09-09T01:10:00;15.40;99.90
15636;DHT22;7917;50.818;6.972;2022-09-09T01:12:38;15.40;99.90
15636;DHT22;7917;50.818;6.972;2022-09-09T01:15:17;15.50;99.90
15636;DHT22;7917;50.818;6.972;2022-09-09T01:17:59;15.60;99.90
15636;DHT22;7917;50.818;6.972;2022-09-09T01:20:31;15.60;99.90
15636;DHT22;7917;50.818;6.972;2022-09-09T01:23:27;15.50;99.90
15636;DHT22;7917;50.818;6.972;2022-09-09T01:26:24;15.40;99.90
15636;DHT22;7917;50.818;6.972;2022-09-09T01:28:54;15.30;99.90
15636;DHT22;7917;50.818;6.972;2022-09-09T01:31:23;15.20;99.90
15636;DHT22;7917;50.818;6.972;2022-09-09T01:33:53;15.20;99.90
15636;DHT22;7917;50.818;6.972;2022-09-09T01:36:26;15.10;99.90
15636;DHT22;7917;50.818;6.972;2022-09-09T01:38:55;15.00;99.90
15636;DHT22;7917;50.818;6.972;2022-09-09T01:41:25;14.90;99.90
15636;DHT22;7917;50.818;6.972;2022-09-09T01:43:53;14.90;99.90
15636;DHT22;7917;50.818;6.972;2022-09-09T01:46:22;14.80;99.90
15636;DHT22;7917;50.818;6.972;2022-09-09T01:48:51;14.80;99.90
15636;DHT22;7917;50.818;6.972;2022-09-09T01:51:19;14.80;99.90
15636;DHT22;7917;50.818;6.972;2022-09-09T01:53:46;14.80;99.90
15636;DHT22;7917;50.818;6.972;2022-09-09T01:56:28;14.90;99.90
15636;DHT22;7917;50.818;6.972;2022-09-09T01:59:07;14.90;99.90
15636;DHT22;7917;50.818;6.972;2022-09-09T02:01:51;15.00;99.90
15636;DHT22;7917;50.818;6.972;2022-09-09T02:04:30;15.10;99.90
15636;DHT22;7917;50.818;6.972;2022-09-09T02:07:18;15.10;99.90
15636;DHT22;7917;50.818;6.972;2022-09-09T02:09:52;15.10;99.90
15636;DHT22;7917;50.818;6.972;2022-09-09T02:12:23;15.10;99.90
15636;DHT22;7917;50.818;6.972;2022-09-09T02:14:56;15.20;99.90
15636;DHT22;7917;50.818;6.972;2022-09-09T02:17:28;15.20;99.90
15636;DHT22;7917;50.818;6.972;2022-09-09T02:20:02;15.20;99.90
15636;DHT22;7917;50.818;6.972;2022-09-09T02:22:33;15.20;99.90
15636;DHT22;7917;50.818;6.972;2022-09-09T02:25:03;15.20;99.90
15636;DHT22;7917;50.818;6.972;2022-09-09T02:27:32;15.30;99.90
15636;DHT22;7917;50.818;6.972;2022-09-09T02:30:01;15.30;99.90
15636;DHT22;7917;50.818;6.972;2022-09-09T02:32:31;15.30;99.90
15636;DHT22;7917;50.818;6.972;2022-09-09T02:35:03;15.30;99.90
15636;DHT22;7917;50.818;6.972;2022-09-09T02:37:37;15.30;99.90
15636;DHT22;7917;50.818;6.972;2022-09-09T02:40:06;15.40;99.90
15636;DHT22;7917;50.818;6.972;2022-09-09T02:42:40;15.40;99.90
15636;DHT22;7917;50.818;6.972;2022-09-09T02:45:08;15.40;99.90
15636;DHT22;7917;50.818;6.972;2022-09-09T02:47:38;15.40;99.90
15636;DHT22;7917;50.818;6.972;2022-09-09T02:50:12;15.40;99.90
15636;DHT22;7917;50.818;6.972;2022-09-09T02:52:47;15.40;99.90
15636;DHT22;7917;50.818;6.972;2022-09-09T02:55:24;15.40;99.90
15636;DHT22;7917;50.818;6.972;2022-09-09T02:58:01;15.50;99.90
15636;DHT22;7917;50.818;6.972;2022-09-09T03:03:52;15.50;99.90
15636;DHT22;7917;50.818;6.972;2022-09-09T03:06:21;15.60;99.90
15636;DHT22;7917;50.818;6.972;2022-09-09T03:08:49;15.60;99.90
15636;DHT22;7917;50.818;6.972;2022-09-09T03:11:18;15.70;99.90
15636;DHT22;7917;50.818;6.972;2022-09-09T03:13:47;15.70;99.90
15636;DHT22;7917;50.818;6.972;2022-09-09T03:16:15;15.70;99.90
15636;DHT22;7917;50.818;6.972;2022-09-09T03:18:43;15.80;99.90
15636;DHT22;7917;50.818;6.972;2022-09-09T03:21:11;15.80;99.90
15636;DHT22;7917;50.818;6.972;2022-09-09T03:23:39;15.80;99.90
15636;DHT22;7917;50.818;6.972;2022-09-09T03:26:08;15.80;99.90
15636;DHT22;7917;50.818;6.972;2022-09-09T03:28:35;15.80;99.90
15636;DHT22;7917;50.818;6.972;2022-09-09T03:31:05;15.80;99.90
15636;DHT22;7917;50.818;6.972;2022-09-09T03:33:36;15.80;99.90
15636;DHT22;7917;50.818;6.972;2022-09-09T03:36:04;15.70;99.90
15636;DHT22;7917;50.818;6.972;2022-09-09T03:38:33;15.70;99.90
15636;DHT22;7917;50.818;6.972;2022-09-09T03:41:01;15.70;99.90
15636;DHT22;7917;50.818;6.972;2022-09-09T03:43:30;15.70;99.90
15636;DHT22;7917;50.818;6.972;2022-09-09T03:45:58;15.70;99.90
15636;DHT22;7917;50.818;6.972;2022-09-09T03:48:28;15.70;99.90
15636;DHT22;7917;50.818;6.972;2022-09-09T03:50:56;15.70;99.90
15636;DHT22;7917;50.818;6.972;2022-09-09T03:53:26;15.70;99.90
15636;DHT22;7917;50.818;6.972;2022-09-09T03:55:56;15.80;99.90
15636;DHT22;7917;50.818;6.972;2022-09-09T03:58:26;15.80;99.90
15636;DHT22;7917;50.818;6.972;2022-09-09T04:00:54;15.90;99.90
15636;DHT22;7917;50.818;6.972;2022-09-09T04:03:23;15.90;99.90
15636;DHT22;7917;50.818;6.972;2022-09-09T04:05:53;15.90;99.90
15636;DHT22;7917;50.818;6.972;2022-09-09T04:08:21;15.90;99.90
15636;DHT22;7917;50.818;6.972;2022-09-09T04:10:52;15.90;99.90
15636;DHT22;7917;50.818;6.972;2022-09-09T04:13:23;15.90;99.90
15636;DHT22;7917;50.818;6.972;2022-09-09T04:15:51;15.90;99.90
15636;DHT22;7917;50.818;6.972;2022-09-09T04:18:21;15.90;99.90
15636;DHT22;7917;50.818;6.972;2022-09-09T04:20:48;15.90;99.90
15636;DHT22;7917;50.818;6.972;2022-09-09T04:23:18;15.90;99.90
15636;DHT22;7917;50.818;6.972;2022-09-09T04:25:47;15.90;99.90
15636;DHT22;7917;50.818;6.972;2022-09-09T04:28:19;15.90;99.90
15636;DHT22;7917;50.818;6.972;2022-09-09T04:30:52;15.90;99.90
15636;DHT22;7917;50.818;6.972;2022-09-09T04:33:21;15.80;99.90
15636;DHT22;7917;50.818;6.972;2022-09-09T04:35:49;15.80;99.90
15636;DHT22;7917;50.818;6.972;2022-09-09T04:38:21;15.80;99.90
15636;DHT22;7917;50.818;6.972;2022-09-09T04:40:51;15.80;99.90
15636;DHT22;7917;50.818;6.972;2022-09-09T04:43:19;15.80;99.90
15636;DHT22;7917;50.818;6.972;2022-09-09T04:45:49;15.80;99.90
15636;DHT22;7917;50.818;6.972;2022-09-09T04:48:18;15.70;99.90
15636;DHT22;7917;50.818;6.972;2022-09-09T04:50:54;15.70;99.90
15636;DHT22;7917;50.818;6.972;2022-09-09T04:53:26;15.70;99.90
15636;DHT22;7917;50.818;6.972;2022-09-09T04:56:01;15.80;99.90
15636;DHT22;7917;50.818;6.972;2022-09-09T04:58:30;15.80;99.90
15636;DHT22;7917;50.818;6.972;2022-09-09T05:01:04;15.80;99.90
15636;DHT22;7917;50.818;6.972;2022-09-09T05:03:32;15.80;99.90
15636;DHT22;7917;50.818;6.972;2022-09-09T05:06:04;15.80;99.90
15636;DHT22;7917;50.818;6.972;2022-09-09T05:08:33;15.90;99.90
15636;DHT22;7917;50.818;6.972;2022-09-09T05:11:01;15.90;99.90
15636;DHT22;7917;50.818;6.972;2022-09-09T05:13:29;15.90;99.90
15636;DHT22;7917;50.818;6.972;2022-09-09T05:15:58;15.90;99.90
15636;DHT22;7917;50.818;6.972;2022-09-09T05:18:26;16.00;99.90
15636;DHT22;7917;50.818;6.972;2022-09-09T05:20:59;16.00;99.90
15636;DHT22;7917;50.818;6.972;2022-09-09T05:23:27;16.00;99.90
15636;DHT22;7917;50.818;6.972;2022-09-09T05:25:58;16.00;99.90
15636;DHT22;7917;50.818;6.972;2022-09-09T05:28:26;16.00;99.90
15636;DHT22;7917;50.818;6.972;2022-09-09T05:30:58;16.00;99.90
15636;DHT22;7917;50.818;6.972;2022-09-09T05:33:26;16.00;99.90
15636;DHT22;7917;50.818;6.972;2022-09-09T05:35:58;16.00;99.90
15636;DHT22;7917;50.818;6.972;2022-09-09T05:38:26;16.00;99.90
15636;DHT22;7917;50.818;6.972;2022-09-09T05:40:59;16.10;99.90
15636;DHT22;7917;50.818;6.972;2022-09-09T05:43:27;16.10;99.90
15636;DHT22;7917;50.818;6.972;2022-09-09T05:46:01;16.10;99.90
15636;DHT22;7917;50.818;6.972;2022-09-09T05:48:32;16.10;99.90
15636;DHT22;7917;50.818;6.972;2022-09-09T05:51:00;16.10;99.90
15636;DHT22;7917;50.818;6.972;2022-09-09T05:53:28;16.10;99.90
15636;DHT22;7917;50.818;6.972;2022-09-09T05:56:04;16.20;99.90
15636;DHT22;7917;50.818;6.972;2022-09-09T05:58:33;16.20;99.90
15636;DHT22;7917;50.818;6.972;2022-09-09T06:01:02;16.30;99.90
15636;DHT22;7917;50.818;6.972;2022-09-09T06:03:31;16.30;99.90
15636;DHT22;7917;50.818;6.972;2022-09-09T06:06:00;16.40;99.90
15636;DHT22;7917;50.818;6.972;2022-09-09T06:08:28;16.50;99.90
15636;DHT22;7917;50.818;6.972;2022-09-09T06:11:03;16.60;99.90
15636;DHT22;7917;50.818;6.972;2022-09-09T06:13:32;16.60;99.90
15636;DHT22;7917;50.818;6.972;2022-09-09T06:15:59;16.60;99.90
15636;DHT22;7917;50.818;6.972;2022-09-09T06:18:27;16.60;99.90
15636;DHT22;7917;50.818;6.972;2022-09-09T06:20:56;16.60;99.90
15636;DHT22;7917;50.818;6.972;2022-09-09T06:23:24;16.60;99.90
15636;DHT22;7917;50.818;6.972;2022-09-09T06:26:03;16.60;99.90
15636;DHT22;7917;50.818;6.972;2022-09-09T06:28:31;16.60;99.90
15636;DHT22;7917;50.818;6.972;2022-09-09T06:30:59;16.60;99.90
15636;DHT22;7917;50.818;6.972;2022-09-09T06:33:30;16.60;99.90
15636;DHT22;7917;50.818;6.972;2022-09-09T06:35:59;16.60;99.90
15636;DHT22;7917;50.818;6.972;2022-09-09T06:38:29;16.70;99.90
15636;DHT22;7917;50.818;6.972;2022-09-09T06:40:58;16.80;99.90
15636;DHT22;7917;50.818;6.972;2022-09-09T06:43:29;17.00;99.90
15636;DHT22;7917;50.818;6.972;2022-09-09T06:45:57;17.30;99.90
15636;DHT22;7917;50.818;6.972;2022-09-09T06:48:26;17.60;99.90
15636;DHT22;7917;50.818;6.972;2022-09-09T06:51:01;17.70;99.90
15636;DHT22;7917;50.818;6.972;2022-09-09T06:53:29;18.00;99.90
15636;DHT22;7917;50.818;6.972;2022-09-09T06:56:18;18.10;98.50
15636;DHT22;7917;50.818;6.972;2022-09-09T06:58:48;18.20;1.00
15636;DHT22;7917;50.818;6.972;2022-09-09T07:01:18;18.40;99.90
15636;DHT22;7917;50.818;6.972;2022-09-09T07:03:46;18.50;1.00
15636;DHT22;7917;50.818;6.972;2022-09-09T07:06:17;18.50;1.00
15636;DHT22;7917;50.818;6.972;2022-09-09T07:08:49;18.70;99.90
15636;DHT22;7917;50.818;6.972;2022-09-09T07:11:17;18.70;1.00
15636;DHT22;7917;50.818;6.972;2022-09-09T07:13:46;18.80;1.00
15636;DHT22;7917;50.818;6.972;2022-09-09T07:16:16;19.00;1.00
15636;DHT22;7917;50.818;6.972;2022-09-09T07:18:45;19.00;1.00
15636;DHT22;7917;50.818;6.972;2022-09-09T07:21:14;19.10;1.00
15636;DHT22;7917;50.818;6.972;2022-09-09T07:23:42;19.20;1.00
15636;DHT22;7917;50.818;6.972;2022-09-09T07:26:11;19.30;99.90
15636;DHT22;7917;50.818;6.972;2022-09-09T07:28:40;19.40;1.00
15636;DHT22;7917;50.818;6.972;2022-09-09T07:31:13;19.60;1.00
15636;DHT22;7917;50.818;6.972;2022-09-09T07:33:44;19.90;99.90
15636;DHT22;7917;50.818;6.972;2022-09-09T07:36:15;19.80;1.00
15636;DHT22;7917;50.818;6.972;2022-09-09T07:38:44;19.90;1.00
15636;DHT22;7917;50.818;6.972;2022-09-09T07:41:16;20.00;1.00
15636;DHT22;7917;50.818;6.972;2022-09-09T07:43:45;19.80;99.90
15636;DHT22;7917;50.818;6.972;2022-09-09T07:46:17;19.50;1.00
15636;DHT22;7917;50.818;6.972;2022-09-09T07:48:49;19.20;99.90
15636;DHT22;7917;50.818;6.972;2022-09-09T07:51:19;19.10;99.90
15636;DHT22;7917;50.818;6.972;2022-09-09T07:53:51;19.00;99.90
15636;DHT22;7917;50.818;6.972;2022-09-09T07:56:20;18.90;99.90
15636;DHT22;7917;50.818;6.972;2022-09-09T07:58:53;19.00;1.00
15636;DHT22;7917;50.818;6.972;2022-09-09T08:01:24;19.00;1.00
15636;DHT22;7917;50.818;6.972;2022-09-09T08:03:58;19.00;99.90
15636;DHT22;7917;50.818;6.972;2022-09-09T08:06:29;18.90;1.00
15636;DHT22;7917;50.818;6.972;2022-09-09T08:08:59;18.90;43.00
15636;DHT22;7917;50.818;6.972;2022-09-09T08:11:28;18.90;1.00
15636;DHT22;7917;50.818;6.972;2022-09-09T08:13:56;19.00;99.90
15636;DHT22;7917;50.818;6.972;2022-09-09T08:16:27;19.00;1.00
15636;DHT22;7917;50.818;6.972;2022-09-09T08:18:57;19.10;1.00
15636;DHT22;7917;50.818;6.972;2022-09-09T08:21:27;19.10;1.00
15636;DHT22;7917;50.818;6.972;2022-09-09T08:23:56;19.10;99.90
15636;DHT22;7917;50.818;6.972;2022-09-09T08:26:25;19.10;1.00
15636;DHT22;7917;50.818;6.972;2022-09-09T08:28:55;19.20;1.00
15636;DHT22;7917;50.818;6.972;2022-09-09T08:31:26;19.10;99.90
15636;DHT22;7917;50.818;6.972;2022-09-09T08:33:55;19.00;1.00
15636;DHT22;7917;50.818;6.972;2022-09-09T08:36:26;19.00;1.00
15636;DHT22;7917;50.818;6.972;2022-09-09T08:38:55;19.20;1.00
15636;DHT22;7917;50.818;6.972;2022-09-09T08:41:53;19.30;1.00
15636;DHT22;7917;50.818;6.972;2022-09-09T08:44:34;19.50;1.00
15636;DHT22;7917;50.818;6.972;2022-09-09T08:47:14;19.60;99.90
15636;DHT22;7917;50.818;6.972;2022-09-09T08:50:02;19.50;99.90
15636;DHT22;7917;50.818;6.972;2022-09-09T08:52:37;19.60;6.10
15636;DHT22;7917;50.818;6.972;2022-09-09T08:55:19;19.80;1.00
15636;DHT22;7917;50.818;6.972;2022-09-09T08:57:50;19.90;1.00
15636;DHT22;7917;50.818;6.972;2022-09-09T09:00:19;20.00;99.90
15636;DHT22;7917;50.818;6.972;2022-09-09T09:02:54;20.30;1.00
15636;DHT22;7917;50.818;6.972;2022-09-09T09:05:30;20.50;1.00
15636;DHT22;7917;50.818;6.972;2022-09-09T09:08:04;20.50;99.90
15636;DHT22;7917;50.818;6.972;2022-09-09T09:10:45;20.50;1.00
15636;DHT22;7917;50.818;6.972;2022-09-09T09:13:15;20.40;1.00
15636;DHT22;7917;50.818;6.972;2022-09-09T09:15:47;20.30;99.90
15636;DHT22;7917;50.818;6.972;2022-09-09T09:18:19;20.30;1.00
15636;DHT22;7917;50.818;6.972;2022-09-09T09:20:56;20.30;1.00
15636;DHT22;7917;50.818;6.972;2022-09-09T09:23:33;20.10;99.90
15636;DHT22;7917;50.818;6.972;2022-09-09T09:26:07;19.70;1.00
15636;DHT22;7917;50.818;6.972;2022-09-09T09:28:37;19.60;44.50
15636;DHT22;7917;50.818;6.972;2022-09-09T09:31:09;19.60;99.90
15636;DHT22;7917;50.818;6.972;2022-09-09T09:33:46;19.50;99.90
15636;DHT22;7917;50.818;6.972;2022-09-09T09:36:14;19.50;99.90
15636;DHT22;7917;50.818;6.972;2022-09-09T09:38:53;19.70;99.90
15636;DHT22;7917;50.818;6.972;2022-09-09T09:41:38;19.70;99.90
15636;DHT22;7917;50.818;6.972;2022-09-09T09:44:23;19.80;1.00
15636;DHT22;7917;50.818;6.972;2022-09-09T09:46:50;19.90;1.00
15636;DHT22;7917;50.818;6.972;2022-09-09T09:49:20;20.30;98.50
15636;DHT22;7917;50.818;6.972;2022-09-09T09:51:48;20.80;99.90
15636;DHT22;7917;50.818;6.972;2022-09-09T09:54:24;20.90;24.20
15636;DHT22;7917;50.818;6.972;2022-09-09T09:57:08;20.90;99.90
15636;DHT22;7917;50.818;6.972;2022-09-09T09:59:37;21.00;99.90
15636;DHT22;7917;50.818;6.972;2022-09-09T10:02:24;20.90;16.50
15636;DHT22;7917;50.818;6.972;2022-09-09T10:05:03;21.30;99.90
15636;DHT22;7917;50.818;6.972;2022-09-09T10:07:32;21.80;1.00
15636;DHT22;7917;50.818;6.972;2022-09-09T10:10:00;21.70;1.00
15636;DHT22;7917;50.818;6.972;2022-09-09T10:12:43;21.60;1.00
15636;DHT22;7917;50.818;6.972;2022-09-09T10:18:20;21.20;1.00
15636;DHT22;7917;50.818;6.972;2022-09-09T10:20:56;21.10;1.00
15636;DHT22;7917;50.818;6.972;2022-09-09T10:23:43;21.10;97.80
15636;DHT22;7917;50.818;6.972;2022-09-09T10:26:32;21.20;4.10
15636;DHT22;7917;50.818;6.972;2022-09-09T10:29:22;21.10;52.10
15636;DHT22;7917;50.818;6.972;2022-09-09T10:32:02;21.00;1.00
15636;DHT22;7917;50.818;6.972;2022-09-09T10:34:53;21.20;99.90
15636;DHT22;7917;50.818;6.972;2022-09-09T10:37:35;21.10;43.70
15636;DHT22;7917;50.818;6.972;2022-09-09T10:40:18;20.90;94.60
15636;DHT22;7917;50.818;6.972;2022-09-09T10:42:48;20.90;99.90
15636;DHT22;7917;50.818;6.972;2022-09-09T10:45:18;21.10;99.90
15636;DHT22;7917;50.818;6.972;2022-09-09T10:48:02;21.20;19.40
15636;DHT22;7917;50.818;6.972;2022-09-09T10:50:50;21.60;1.00
15636;DHT22;7917;50.818;6.972;2022-09-09T10:53:32;22.00;1.00
15636;DHT22;7917;50.818;6.972;2022-09-09T10:56:06;22.10;1.00
15636;DHT22;7917;50.818;6.972;2022-09-09T10:58:40;21.70;1.00
15636;DHT22;7917;50.818;6.972;2022-09-09T11:01:14;21.80;1.00
15636;DHT22;7917;50.818;6.972;2022-09-09T11:03:49;21.80;1.00
15636;DHT22;7917;50.818;6.972;2022-09-09T11:06:21;21.80;1.00
15636;DHT22;7917;50.818;6.972;2022-09-09T11:08:53;21.70;1.00
15636;DHT22;7917;50.818;6.972;2022-09-09T11:11:25;21.60;1.00
15636;DHT22;7917;50.818;6.972;2022-09-09T11:13:58;21.50;1.00
15636;DHT22;7917;50.818;6.972;2022-09-09T11:16:30;21.70;1.00
15636;DHT22;7917;50.818;6.972;2022-09-09T11:19:04;21.50;1.00
15636;DHT22;7917;50.818;6.972;2022-09-09T11:21:37;21.20;1.00
15636;DHT22;7917;50.818;6.972;2022-09-09T11:24:11;21.20;1.00
15636;DHT22;7917;50.818;6.972;2022-09-09T11:26:45;21.30;1.00
15636;DHT22;7917;50.818;6.972;2022-09-09T11:29:50;21.40;1.00
15636;DHT22;7917;50.818;6.972;2022-09-09T11:32:59;21.50;1.00
15636;DHT22;7917;50.818;6.972;2022-09-09T11:35:39;21.70;1.00
15636;DHT22;7917;50.818;6.972;2022-09-09T11:38:18;21.70;1.00
15636;DHT22;7917;50.818;6.972;2022-09-09T11:40:57;21.90;1.00
15636;DHT22;7917;50.818;6.972;2022-09-09T11:43:30;22.00;1.00
15636;DHT22;7917;50.818;6.972;2022-09-09T11:46:00;22.10;1.00
15636;DHT22;7917;50.818;6.972;2022-09-09T11:48:33;22.20;1.00
15636;DHT22;7917;50.818;6.972;2022-09-09T11:51:05;22.20;1.00
15636;DHT22;7917;50.818;6.972;2022-09-09T11:53:35;22.40;1.00
15636;DHT22;7917;50.818;6.972;2022-09-09T11:56:07;22.30;1.00
15636;DHT22;7917;50.818;6.972;2022-09-09T11:58:42;22.10;1.00
15636;DHT22;7917;50.818;6.972;2022-09-09T12:04:12;22.10;1.00
15636;DHT22;7917;50.818;6.972;2022-09-09T12:06:45;21.80;1.00
15636;DHT22;7917;50.818;6.972;2022-09-09T12:09:21;21.60;1.00
15636;DHT22;7917;50.818;6.972;2022-09-09T12:11:53;21.50;1.00
15636;DHT22;7917;50.818;6.972;2022-09-09T12:14:37;21.40;1.00
15636;DHT22;7917;50.818;6.972;2022-09-09T12:17:19;21.50;1.00
15636;DHT22;7917;50.818;6.972;2022-09-09T12:19:48;21.50;1.00
15636;DHT22;7917;50.818;6.972;2022-09-09T12:22:37;21.60;1.00
15636;DHT22;7917;50.818;6.972;2022-09-09T12:25:18;21.60;1.00
15636;DHT22;7917;50.818;6.972;2022-09-09T12:28:02;21.70;1.00
15636;DHT22;7917;50.818;6.972;2022-09-09T12:30:34;21.90;1.00
15636;DHT22;7917;50.818;6.972;2022-09-09T12:33:11;22.10;1.00
15636;DHT22;7917;50.818;6.972;2022-09-09T12:35:43;22.20;1.00
15636;DHT22;7917;50.818;6.972;2022-09-09T12:38:14;22.00;1.00
15636;DHT22;7917;50.818;6.972;2022-09-09T12:40:54;21.90;1.00
15636;DHT22;7917;50.818;6.972;2022-09-09T12:43:25;21.80;1.00
15636;DHT22;7917;50.818;6.972;2022-09-09T12:45:56;21.80;1.00
15636;DHT22;7917;50.818;6.972;2022-09-09T12:48:32;22.00;1.00
15636;DHT22;7917;50.818;6.972;2022-09-09T12:51:00;22.10;1.00
15636;DHT22;7917;50.818;6.972;2022-09-09T12:53:31;22.10;1.00
15636;DHT22;7917;50.818;6.972;2022-09-09T12:56:02;22.00;1.00
15636;DHT22;7917;50.818;6.972;2022-09-09T12:58:32;21.90;1.00
15636;DHT22;7917;50.818;6.972;2022-09-09T13:01:02;21.80;1.00
15636;DHT22;7917;50.818;6.972;2022-09-09T13:03:31;21.70;1.00
15636;DHT22;7917;50.818;6.972;2022-09-09T13:06:11;21.50;1.00
15636;DHT22;7917;50.818;6.972;2022-09-09T13:08:39;21.40;1.00
15636;DHT22;7917;50.818;6.972;2022-09-09T13:11:10;21.40;1.00
15636;DHT22;7917;50.818;6.972;2022-09-09T13:13:42;21.30;1.00
15636;DHT22;7917;50.818;6.972;2022-09-09T13:16:20;21.40;1.20
15636;DHT22;7917;50.818;6.972;2022-09-09T13:18:50;21.90;1.00
15636;DHT22;7917;50.818;6.972;2022-09-09T13:21:18;22.00;1.00
15636;DHT22;7917;50.818;6.972;2022-09-09T13:23:49;22.40;1.00
15636;DHT22;7917;50.818;6.972;2022-09-09T13:26:23;22.50;1.00
15636;DHT22;7917;50.818;6.972;2022-09-09T13:28:53;22.70;1.00
15636;DHT22;7917;50.818;6.972;2022-09-09T13:31:24;22.80;1.00
15636;DHT22;7917;50.818;6.972;2022-09-09T13:33:53;23.00;1.00
15636;DHT22;7917;50.818;6.972;2022-09-09T13:36:29;23.20;1.00
15636;DHT22;7917;50.818;6.972;2022-09-09T13:39:00;23.10;1.00
15636;DHT22;7917;50.818;6.972;2022-09-09T13:41:31;22.70;1.00
15636;DHT22;7917;50.818;6.972;2022-09-09T13:44:01;22.80;1.00
15636;DHT22;7917;50.818;6.972;2022-09-09T13:46:32;22.80;1.00
15636;DHT22;7917;50.818;6.972;2022-09-09T13:49:18;23.00;1.00
15636;DHT22;7917;50.818;6.972;2022-09-09T13:51:48;23.10;1.00
15636;DHT22;7917;50.818;6.972;2022-09-09T13:54:18;23.00;1.00
15636;DHT22;7917;50.818;6.972;2022-09-09T13:56:46;22.90;1.00
15636;DHT22;7917;50.818;6.972;2022-09-09T13:59:18;22.50;1.00
15636;DHT22;7917;50.818;6.972;2022-09-09T14:01:48;22.20;1.00
15636;DHT22;7917;50.818;6.972;2022-09-09T14:04:18;22.20;99.90
15636;DHT22;7917;50.818;6.972;2022-09-09T14:06:47;22.50;99.90
15636;DHT22;7917;50.818;6.972;2022-09-09T14:09:17;23.00;37.00
15636;DHT22;7917;50.818;6.972;2022-09-09T14:11:45;23.60;1.00
15636;DHT22;7917;50.818;6.972;2022-09-09T14:14:13;23.30;1.00
15636;DHT22;7917;50.818;6.972;2022-09-09T14:16:42;23.30;1.00
15636;DHT22;7917;50.818;6.972;2022-09-09T14:19:11;22.90;1.00
15636;DHT22;7917;50.818;6.972;2022-09-09T14:21:39;23.00;18.10
15636;DHT22;7917;50.818;6.972;2022-09-09T14:24:06;23.00;1.00
15636;DHT22;7917;50.818;6.972;2022-09-09T14:26:34;22.70;1.00
15636;DHT22;7917;50.818;6.972;2022-09-09T14:29:02;23.20;1.00
15636;DHT22;7917;50.818;6.972;2022-09-09T14:31:31;23.10;1.00
15636;DHT22;7917;50.818;6.972;2022-09-09T14:34:00;23.00;1.00
15636;DHT22;7917;50.818;6.972;2022-09-09T14:36:27;23.80;1.00
15636;DHT22;7917;50.818;6.972;2022-09-09T14:38:56;24.40;1.00
15636;DHT22;7917;50.818;6.972;2022-09-09T14:41:24;24.40;1.00
15636;DHT22;7917;50.818;6.972;2022-09-09T14:43:52;24.40;1.00
15636;DHT22;7917;50.818;6.972;2022-09-09T14:46:20;23.70;1.00
15636;DHT22;7917;50.818;6.972;2022-09-09T14:48:48;23.00;1.00
15636;DHT22;7917;50.818;6.972;2022-09-09T14:51:20;22.10;26.50
15636;DHT22;7917;50.818;6.972;2022-09-09T14:53:50;21.40;99.90
15636;DHT22;7917;50.818;6.972;2022-09-09T14:56:20;21.10;1.00
15636;DHT22;7917;50.818;6.972;2022-09-09T14:58:49;21.00;1.00
15636;DHT22;7917;50.818;6.972;2022-09-09T15:01:19;20.90;1.00
15636;DHT22;7917;50.818;6.972;2022-09-09T15:03:50;20.80;99.90
15636;DHT22;7917;50.818;6.972;2022-09-09T15:06:21;20.60;1.00
15636;DHT22;7917;50.818;6.972;2022-09-09T15:08:51;20.50;24.50
15636;DHT22;7917;50.818;6.972;2022-09-09T15:11:23;20.30;99.90
15636;DHT22;7917;50.818;6.972;2022-09-09T15:13:54;20.20;1.00
15636;DHT22;7917;50.818;6.972;2022-09-09T15:16:24;19.80;99.90
15636;DHT22;7917;50.818;6.972;2022-09-09T15:18:56;19.50;99.90
15636;DHT22;7917;50.818;6.972;2022-09-09T15:21:26;19.10;1.00
15636;DHT22;7917;50.818;6.972;2022-09-09T15:23:55;19.00;1.00
15636;DHT22;7917;50.818;6.972;2022-09-09T15:26:23;18.90;31.40
15636;DHT22;7917;50.818;6.972;2022-09-09T15:28:54;18.60;1.00
15636;DHT22;7917;50.818;6.972;2022-09-09T15:31:26;18.00;1.00
15636;DHT22;7917;50.818;6.972;2022-09-09T15:33:58;17.70;1.00
15636;DHT22;7917;50.818;6.972;2022-09-09T15:36:30;17.30;1.00
15636;DHT22;7917;50.818;6.972;2022-09-09T15:38:59;16.90;99.90
15636;DHT22;7917;50.818;6.972;2022-09-09T15:41:28;16.70;99.90
15636;DHT22;7917;50.818;6.972;2022-09-09T15:43:58;16.60;1.00
15636;DHT22;7917;50.818;6.972;2022-09-09T15:46:30;16.50;1.00
15636;DHT22;7917;50.818;6.972;2022-09-09T15:49:04;16.30;1.00
15636;DHT22;7917;50.818;6.972;2022-09-09T15:51:33;16.30;99.90
15636;DHT22;7917;50.818;6.972;2022-09-09T15:54:01;16.20;99.90
15636;DHT22;7917;50.818;6.972;2022-09-09T15:56:29;16.30;99.90
15636;DHT22;7917;50.818;6.972;2022-09-09T15:58:59;16.30;99.90
15636;DHT22;7917;50.818;6.972;2022-09-09T16:01:29;16.20;99.90
15636;DHT22;7917;50.818;6.972;2022-09-09T16:03:57;16.30;99.90
15636;DHT22;7917;50.818;6.972;2022-09-09T16:06:27;16.30;99.90
15636;DHT22;7917;50.818;6.972;2022-09-09T16:08:58;16.30;99.90
15636;DHT22;7917;50.818;6.972;2022-09-09T16:11:28;16.40;99.90
15636;DHT22;7917;50.818;6.972;2022-09-09T16:13:56;16.50;99.90
15636;DHT22;7917;50.818;6.972;2022-09-09T16:16:26;16.60;99.90
15636;DHT22;7917;50.818;6.972;2022-09-09T16:18:57;16.70;99.90
15636;DHT22;7917;50.818;6.972;2022-09-09T16:21:26;16.80;99.90
15636;DHT22;7917;50.818;6.972;2022-09-09T16:23:57;16.90;99.90
15636;DHT22;7917;50.818;6.972;2022-09-09T16:26:25;17.10;99.90
15636;DHT22;7917;50.818;6.972;2022-09-09T16:28:53;17.20;99.90
15636;DHT22;7917;50.818;6.972;2022-09-09T16:31:22;17.20;99.90
15636;DHT22;7917;50.818;6.972;2022-09-09T16:33:51;17.30;99.90
15636;DHT22;7917;50.818;6.972;2022-09-09T16:36:20;17.40;99.90
15636;DHT22;7917;50.818;6.972;2022-09-09T16:38:51;17.40;99.90